Time;durP1;ratioP1;P1;durP2;ratioP2;P2;SDS_P1;SDS_P2;PMS_P1;PMS_P2;Temp;Humidity;BMP_temperature;BMP_pressure;BME280_temperature;BME280_humidity;BME280_pressure;Samples;Min_cycle;Max_cycle;Signal;HPM_P1;HPM_P2
2021/01/15 05:58:32;;;;;;;1999.90;999.90;;;-2.30;99.90;;;;;;5065106;28;20856;-45
2021/01/15 06:00:58;;;;;;;1999.90;999.90;;;-2.30;99.90;;;;;;5062597;28;20484;-45
2021/01/15 06:03:24;;;;;;;1999.90;999.90;;;-2.30;99.90;;;;;;5051221;28;20182;-45
2021/01/15 06:05:50;;;;;;;1999.90;999.90;;;-2.20;99.90;;;;;;5041315;28;20261;-45
2021/01/15 06:08:17;;;;;;;1999.90;999.90;;;-2.20;99.90;;;;;;5026013;28;20441;-45
2021/01/15 06:10:47;;;;;;;1999.90;999.90;;;-2.20;99.90;;;;;;5045288;28;20480;-45
2021/01/15 06:13:37;;;;;;;1999.90;999.90;;;-2.10;99.90;;;;;;5046586;28;20429;-45
2021/01/15 06:16:04;;;;;;;1999.90;999.90;;;-2.00;99.90;;;;;;5047291;28;21002;-45
2021/01/15 06:18:30;;;;;;;1999.90;999.90;;;-2.00;99.90;;;;;;5044326;28;20640;-45
2021/01/15 06:21:09;;;;;;;1999.90;999.90;;;-1.90;99.90;;;;;;5027720;28;20465;-44
2021/01/15 06:23:42;;;;;;;1999.90;999.90;;;-1.80;99.90;;;;;;5035235;28;20193;-44
2021/01/15 06:26:11;;;;;;;1999.90;999.90;;;-1.80;99.90;;;;;;5047471;28;20494;-44
2021/01/15 06:28:38;;;;;;;1999.90;999.90;;;-1.80;99.90;;;;;;5046305;28;20428;-44
2021/01/15 06:31:07;;;;;;;1999.90;999.90;;;-1.80;99.90;;;;;;5045384;28;20467;-44
2021/01/15 06:33:33;;;;;;;1999.90;999.90;;;-1.80;99.90;;;;;;5044910;28;20816;-45
2021/01/15 06:35:59;;;;;;;1999.90;999.90;;;-1.80;99.90;;;;;;5037136;28;20496;-45
2021/01/15 06:38:29;;;;;;;1999.90;999.90;;;-1.80;99.90;;;;;;5027473;28;20465;-45
2021/01/15 06:40:56;;;;;;;1999.90;999.90;;;-1.70;99.90;;;;;;5038813;28;20192;-45
2021/01/15 06:43:33;;;;;;;1999.90;999.90;;;-1.70;99.90;;;;;;5028116;28;20947;-44
2021/01/15 06:46:01;;;;;;;1999.90;999.90;;;-1.60;99.90;;;;;;5040515;28;20511;-45
2021/01/15 06:48:32;;;;;;;1999.90;999.90;;;-1.60;99.90;;;;;;5035330;28;20487;-44
2021/01/15 06:50:58;;;;;;;1999.90;999.90;;;-1.60;99.90;;;;;;5044126;28;20962;-45
2021/01/15 06:53:25;;;;;;;1999.90;999.90;;;-1.50;99.90;;;;;;5047243;28;20830;-45
2021/01/15 06:56:04;;;;;;;1999.90;999.90;;;-1.60;99.90;;;;;;5046745;28;20514;-45
2021/01/15 06:58:34;;;;;;;1999.90;999.90;;;-1.60;99.90;;;;;;5048562;28;20537;-44
2021/01/15 07:01:21;;;;;;;1999.90;999.90;;;-1.60;99.90;;;;;;5048948;28;20397;-45
2021/01/15 07:03:53;;;;;;;1999.90;999.90;;;-1.50;99.90;;;;;;5048793;28;20425;-45
2021/01/15 07:06:27;;;;;;;1999.90;999.90;;;-1.40;99.90;;;;;;5047395;28;20487;-44
2021/01/15 07:08:54;;;;;;;1999.90;999.90;;;-1.50;99.90;;;;;;5041258;28;20425;-45
2021/01/15 07:11:23;;;;;;;1999.90;999.90;;;-1.60;99.90;;;;;;5034643;28;20433;-45
2021/01/15 07:13:56;;;;;;;1999.90;999.90;;;-1.70;99.90;;;;;;5035008;28;20816;-45
2021/01/15 07:16:32;;;;;;;1999.90;999.90;;;-1.70;99.90;;;;;;5034606;28;20436;-45
2021/01/15 07:19:14;;;;;;;1999.90;999.90;;;-1.60;99.90;;;;;;5014013;28;20485;-44
2021/01/15 07:21:49;;;;;;;1999.90;999.90;;;-1.60;99.90;;;;;;5023553;28;20446;-45
2021/01/15 07:24:31;;;;;;;1999.90;999.90;;;-1.60;99.90;;;;;;5033316;28;20417;-45
2021/01/15 07:26:58;;;;;;;1999.90;999.90;;;-1.60;99.90;;;;;;5030452;28;20868;-45
2021/01/15 07:29:25;;;;;;;1999.90;999.90;;;-1.50;99.90;;;;;;5031710;28;20445;-45
2021/01/15 07:31:55;;;;;;;1999.90;999.90;;;-1.50;99.90;;;;;;5027073;28;20496;-45
2021/01/15 07:34:23;;;;;;;1999.90;999.90;;;-1.50;99.90;;;;;;5028624;28;20495;-45
2021/01/15 07:36:50;;;;;;;1999.90;999.90;;;-1.50;99.90;;;;;;5032331;28;20492;-45
2021/01/15 07:39:18;;;;;;;1999.90;999.90;;;-1.60;99.90;;;;;;5029831;28;20476;-46
2021/01/15 07:41:48;;;;;;;1999.90;999.90;;;-1.60;99.90;;;;;;5032480;28;20417;-45
2021/01/15 07:44:22;;;;;;;1999.90;999.90;;;-1.50;99.90;;;;;;5031423;28;20453;-45
2021/01/15 07:46:51;;;;;;;1999.90;999.90;;;-1.50;99.90;;;;;;5032534;28;20445;-45
2021/01/15 07:49:17;;;;;;;1999.90;999.90;;;-1.40;99.90;;;;;;5030140;28;20446;-45
2021/01/15 07:52:03;;;;;;;1999.90;999.90;;;-1.40;99.90;;;;;;5032565;28;20836;-45
2021/01/15 07:54:49;;;;;;;1999.90;999.90;;;-1.30;99.90;;;;;;5030115;28;20450;-44
2021/01/15 07:57:16;;;;;;;1999.90;999.90;;;-1.30;99.90;;;;;;5012657;28;20478;-45
2021/01/15 07:59:42;;;;;;;1999.90;999.90;;;-1.30;99.90;;;;;;5018314;28;20473;-45
2021/01/15 08:02:08;;;;;;;1999.90;999.90;;;-1.30;99.90;;;;;;5017149;28;20474;-46
2021/01/15 08:04:34;;;;;;;1999.90;999.90;;;-1.40;99.90;;;;;;5024732;28;20909;-45
2021/01/15 08:07:30;;;;;;;1999.90;999.90;;;-1.40;99.90;;;;;;5021770;28;20509;-45
2021/01/15 08:09:55;;;;;;;1999.90;999.90;;;-1.20;99.90;;;;;;5019920;28;20207;-46
2021/01/15 08:12:22;;;;;;;1999.90;999.90;;;-1.20;99.90;;;;;;5028252;28;20438;-46
2021/01/15 08:14:48;;;;;;;1999.90;999.90;;;-1.20;99.90;;;;;;5024779;28;20201;-45
2021/01/15 08:17:24;;;;;;;1999.90;999.90;;;-1.20;99.90;;;;;;5029575;28;20465;-45
2021/01/15 08:19:50;;;;;;;1999.90;999.90;;;-1.20;99.90;;;;;;5026831;28;20179;-45
2021/01/15 08:22:16;;;;;;;1999.90;999.90;;;-1.20;99.90;;;;;;5026689;28;20449;-45
2021/01/15 08:24:45;;;;;;;1999.90;999.90;;;-1.20;99.90;;;;;;5029139;28;20247;-45
2021/01/15 08:27:17;;;;;;;1999.90;999.90;;;-1.20;99.90;;;;;;5029139;28;20449;-45
2021/01/15 08:29:43;;;;;;;1999.90;999.90;;;-1.20;99.90;;;;;;5028069;28;20434;-45
2021/01/15 08:32:09;;;;;;;1999.90;999.90;;;-1.10;99.90;;;;;;5025500;28;20453;-45
2021/01/15 08:34:36;;;;;;;1999.90;999.90;;;-1.00;99.90;;;;;;5029199;28;20479;-45
2021/01/15 08:37:10;;;;;;;1999.90;999.90;;;-0.90;99.90;;;;;;5028796;28;20924;-45
2021/01/15 08:39:49;;;;;;;1999.90;999.90;;;-1.00;99.90;;;;;;5022067;28;20437;-45
2021/01/15 08:42:16;;;;;;;1999.90;999.90;;;-1.00;99.90;;;;;;5017172;28;20442;-45
2021/01/15 08:44:45;;;;;;;1999.90;999.90;;;-1.00;99.90;;;;;;5018771;28;20447;-46
2021/01/15 08:47:13;;;;;;;1999.90;999.90;;;-1.10;99.90;;;;;;5019930;28;20454;-45
2021/01/15 08:49:49;;;;;;;1999.90;999.90;;;-1.00;99.90;;;;;;5024064;28;20878;-46
2021/01/15 08:52:21;;;;;;;1999.90;999.90;;;-1.00;99.90;;;;;;5024884;28;20506;-46
2021/01/15 08:54:47;;;;;;;1999.90;999.90;;;-0.90;99.90;;;;;;5014424;28;20461;-46
2021/01/15 08:57:14;;;;;;;1999.90;999.90;;;-0.90;99.90;;;;;;5020881;28;20484;-46
2021/01/15 08:59:40;;;;;;;1999.90;999.90;;;-0.80;99.90;;;;;;5022044;28;20473;-46
2021/01/15 09:02:06;;;;;;;1999.90;999.90;;;-0.70;99.90;;;;;;5020600;28;20425;-46
2021/01/15 09:04:34;;;;;;;1999.90;999.90;;;-0.90;99.90;;;;;;5022844;28;20179;-46
2021/01/15 09:07:01;;;;;;;1999.90;999.90;;;-0.80;99.90;;;;;;5025427;28;20495;-46
2021/01/15 09:09:29;;;;;;;1999.90;999.90;;;-0.90;99.90;;;;;;5016509;28;20454;-46
2021/01/15 09:11:55;;;;;;;1999.90;999.90;;;-0.80;99.90;;;;;;5014493;28;20525;-46
2021/01/15 09:14:22;;;;;;;1999.90;999.90;;;-0.80;99.90;;;;;;5019705;28;20914;-46
2021/01/15 09:16:50;;;;;;;1999.90;999.90;;;-0.80;99.90;;;;;;5023594;28;20999;-46
2021/01/15 09:19:16;;;;;;;1999.90;999.90;;;-0.80;99.90;;;;;;5023258;28;20899;-47
2021/01/15 09:21:46;;;;;;;1999.90;999.90;;;-0.80;99.90;;;;;;5020749;28;20461;-46
2021/01/15 09:24:13;;;;;;;1999.90;999.90;;;-0.80;99.90;;;;;;5016376;28;20449;-46
2021/01/15 09:26:39;;;;;;;1999.90;999.90;;;-0.80;99.90;;;;;;5022562;28;20512;-46
2021/01/15 09:29:05;;;;;;;1999.90;999.90;;;-0.80;99.90;;;;;;5020435;28;20573;-46
2021/01/15 09:31:30;;;;;;;1999.90;999.90;;;-0.70;99.90;;;;;;5024257;28;20542;-46
2021/01/15 09:33:56;;;;;;;1999.90;999.90;;;-0.70;99.90;;;;;;5022037;28;20361;-46
2021/01/15 09:36:28;;;;;;;1999.90;999.90;;;-0.80;99.90;;;;;;5019362;28;20231;-46
2021/01/15 09:38:55;;;;;;;1999.90;999.90;;;-0.70;99.90;;;;;;5022440;28;20269;-46
2021/01/15 09:41:22;;;;;;;1999.90;999.90;;;-0.80;99.90;;;;;;5016816;28;20478;-46
2021/01/15 09:43:53;;;;;;;1999.90;999.90;;;-0.70;99.90;;;;;;5012685;28;20492;-46
2021/01/15 09:46:23;;;;;;;1999.90;999.90;;;-0.70;99.90;;;;;;5019509;28;20449;-46
2021/01/15 09:48:51;;;;;;;1999.90;999.90;;;-0.80;99.90;;;;;;5018971;28;20579;-46
2021/01/15 09:51:20;;;;;;;1999.90;999.90;;;-0.70;99.90;;;;;;5021084;28;20430;-46
2021/01/15 09:53:46;;;;;;;1999.90;999.90;;;-0.80;99.90;;;;;;5020797;28;20453;-46
2021/01/15 09:56:30;;;;;;;1999.90;999.90;;;-0.80;99.90;;;;;;5020810;28;20477;-46
2021/01/15 09:59:00;;;;;;;1999.90;999.90;;;-0.70;99.90;;;;;;5045141;28;20194;-46
2021/01/15 10:01:27;;;;;;;1999.90;999.90;;;-0.70;99.90;;;;;;5021109;28;20446;-46
2021/01/15 10:03:53;;;;;;;1999.90;999.90;;;-0.70;99.90;;;;;;5020645;28;20434;-46
2021/01/15 10:06:19;;;;;;;1999.90;999.90;;;-0.60;99.90;;;;;;5022831;28;20434;-46
2021/01/15 10:08:46;;;;;;;1999.90;999.90;;;-0.50;99.90;;;;;;5022868;28;20459;-45
2021/01/15 10:11:47;;;;;;;1999.90;999.90;;;-0.60;99.90;;;;;;5018269;28;20432;-46
2021/01/15 10:14:15;;;;;;;1999.90;999.90;;;-0.40;99.90;;;;;;5013450;28;20427;-45
2021/01/15 10:16:42;;;;;;;1999.90;999.90;;;-0.50;99.90;;;;;;5019151;28;20468;-46
2021/01/15 10:19:08;;;;;;;1999.90;999.90;;;-0.50;99.90;;;;;;5021330;28;20425;-46
2021/01/15 10:21:35;;;;;;;1999.90;999.90;;;-0.30;99.90;;;;;;5019756;28;20431;-46
2021/01/15 10:24:03;;;;;;;1999.90;999.90;;;-0.40;99.90;;;;;;5022409;28;20439;-46
2021/01/15 10:26:32;;;;;;;1999.90;999.90;;;-0.40;99.90;;;;;;5012502;28;20486;-46
2021/01/15 10:29:03;;;;;;;1999.90;999.90;;;-0.20;99.90;;;;;;5023459;28;20427;-47
2021/01/15 10:31:33;;;;;;;1999.90;999.90;;;-0.20;99.90;;;;;;5020303;28;20802;-45
2021/01/15 10:34:01;;;;;;;1999.90;999.90;;;-0.30;99.90;;;;;;5023663;28;20796;-45
2021/01/15 10:36:27;;;;;;;1999.90;999.90;;;-0.30;99.90;;;;;;5017133;28;20470;-45
2021/01/15 10:38:53;;;;;;;1999.90;999.90;;;-0.20;99.90;;;;;;5019653;28;20469;-44
2021/01/15 10:41:29;;;;;;;1999.90;999.90;;;-0.30;99.90;;;;;;5022389;28;20479;-45
2021/01/15 10:43:55;;;;;;;1999.90;999.90;;;-0.30;99.90;;;;;;5014718;28;20442;-45
2021/01/15 10:46:41;;;;;;;1999.90;999.90;;;-0.30;99.90;;;;;;5019720;28;20462;-45
2021/01/15 10:49:17;;;;;;;1999.90;999.90;;;-0.30;99.90;;;;;;5032965;28;20437;-45
2021/01/15 10:51:45;;;;;;;1999.90;999.90;;;-0.20;99.90;;;;;;5013110;28;20449;-45
2021/01/15 10:54:11;;;;;;;1999.90;999.90;;;-0.20;99.90;;;;;;5013778;28;20451;-45
2021/01/15 10:56:41;;;;;;;1999.90;999.90;;;-0.30;99.90;;;;;;5027962;28;20509;-45
2021/01/15 10:59:07;;;;;;;1999.90;999.90;;;-0.40;99.90;;;;;;5030519;28;20196;-45
2021/01/15 11:01:47;;;;;;;1999.90;999.90;;;-0.30;99.90;;;;;;5013758;28;20448;-46
2021/01/15 11:04:15;;;;;;;1999.90;999.90;;;-0.30;99.90;;;;;;5028422;28;20208;-46
2021/01/15 11:06:42;;;;;;;1999.90;999.90;;;-0.50;99.90;;;;;;5023626;28;20536;-46
2021/01/15 11:09:13;;;;;;;1999.90;999.90;;;-0.60;99.90;;;;;;5019863;28;20927;-46
2021/01/15 11:11:46;;;;;;;1999.90;999.90;;;-0.60;99.90;;;;;;5022976;28;20445;-47
2021/01/15 11:14:13;;;;;;;1999.90;999.90;;;-0.60;99.90;;;;;;5032078;28;20771;-46
2021/01/15 11:16:38;;;;;;;1999.90;999.90;;;-0.50;99.90;;;;;;5022861;28;20468;-47
2021/01/15 11:19:04;;;;;;;1999.90;999.90;;;-0.60;99.90;;;;;;5020337;28;20506;-47
2021/01/15 11:21:30;;;;;;;1999.90;999.90;;;-0.60;99.90;;;;;;5022968;28;20190;-47
2021/01/15 11:23:55;;;;;;;1999.90;999.90;;;-0.70;99.90;;;;;;5014227;28;20188;-47
2021/01/15 11:26:28;;;;;;;1999.90;999.90;;;-0.80;99.90;;;;;;5011962;28;20290;-47
2021/01/15 11:28:56;;;;;;;1999.90;999.90;;;-0.80;99.90;;;;;;5014936;28;20192;-47
2021/01/15 11:31:22;;;;;;;1999.90;999.90;;;-0.80;99.90;;;;;;5010674;28;20411;-47
2021/01/15 11:33:49;;;;;;;1999.90;999.90;;;-0.70;99.90;;;;;;5017128;28;20437;-47
2021/01/15 11:36:15;;;;;;;1999.90;999.90;;;-0.70;99.90;;;;;;5042392;28;20537;-46
2021/01/15 11:38:41;;;;;;;1999.90;999.90;;;-0.70;99.90;;;;;;5032814;28;20480;-47
2021/01/15 11:41:14;;;;;;;1999.90;999.90;;;-0.70;99.90;;;;;;5055222;28;20443;-56
2021/01/15 11:43:42;;;;;;;1999.90;999.90;;;-0.70;99.90;;;;;;5017954;28;20458;-47
2021/01/15 11:46:09;;;;;;;1999.90;999.90;;;-0.80;99.90;;;;;;5009982;28;20970;-46
2021/01/15 11:48:35;;;;;;;1999.90;999.90;;;-0.80;99.90;;;;;;5016370;28;20462;-47
2021/01/15 11:51:02;;;;;;;1999.90;999.90;;;-0.80;99.90;;;;;;5025748;28;20439;-47
2021/01/15 11:53:33;;;;;;;1999.90;999.90;;;-0.90;99.90;;;;;;5016190;28;21173;-47
2021/01/15 11:56:01;;;;;;;1999.90;999.90;;;-0.90;99.90;;;;;;5029197;28;20468;-47
2021/01/15 11:58:27;;;;;;;1999.90;999.90;;;-1.00;99.90;;;;;;5017970;28;20475;-46
2021/01/15 12:00:55;;;;;;;1999.90;999.90;;;-1.00;99.90;;;;;;5014369;28;21026;-46
2021/01/15 12:03:21;;;;;;;1999.90;999.90;;;-1.10;99.90;;;;;;5018390;28;20792;-47
2021/01/15 12:05:49;;;;;;;1999.90;999.90;;;-1.20;99.90;;;;;;5025155;28;20945;-47
2021/01/15 12:08:19;;;;;;;1999.90;999.90;;;-1.10;99.90;;;;;;5015983;28;20446;-47
2021/01/15 12:10:46;;;;;;;1999.90;999.90;;;-1.20;99.90;;;;;;5011972;28;20778;-47
2021/01/15 12:13:12;;;;;;;1999.90;999.90;;;-1.20;99.90;;;;;;5021259;28;20435;-47
2021/01/15 12:15:37;;;;;;;1999.90;999.90;;;-1.20;99.90;;;;;;5028229;28;20448;-46
2021/01/15 12:18:03;;;;;;;1999.90;999.90;;;-1.10;99.90;;;;;;5021231;28;20290;-46
2021/01/15 12:20:35;;;;;;;1999.90;999.90;;;-1.10;99.90;;;;;;5016140;28;20261;-47
2021/01/15 12:23:01;;;;;;;1999.90;999.90;;;-1.10;99.90;;;;;;5009183;28;20185;-47
2021/01/15 12:25:27;;;;;;;1999.90;999.90;;;-0.90;99.90;;;;;;5009220;28;21010;-47
2021/01/15 12:27:52;;;;;;;1999.90;999.90;;;-0.90;99.90;;;;;;5009136;28;20188;-46
2021/01/15 12:30:18;;;;;;;1999.90;999.90;;;-0.90;99.90;;;;;;5024380;28;20261;-47
2021/01/15 12:32:44;;;;;;;1999.90;999.90;;;-1.00;99.90;;;;;;5028746;28;20657;-47
2021/01/15 12:35:10;;;;;;;1999.90;999.90;;;-1.00;99.90;;;;;;5020112;28;20564;-47
2021/01/15 12:37:35;;;;;;;1999.90;999.90;;;-1.00;99.90;;;;;;5024758;28;20206;-47
2021/01/15 12:40:01;;;;;;;1999.90;999.90;;;-0.80;99.90;;;;;;5014106;28;20508;-47
2021/01/15 12:42:27;;;;;;;1999.90;999.90;;;-0.80;99.90;;;;;;5014146;28;20649;-46
2021/01/15 12:44:52;;;;;;;1999.90;999.90;;;-0.70;99.90;;;;;;5023442;28;20186;-47
2021/01/15 12:47:18;;;;;;;1999.90;999.90;;;-0.90;99.90;;;;;;5028563;28;20189;-47
2021/01/15 12:49:43;;;;;;;1999.90;999.90;;;-0.90;99.90;;;;;;5022289;28;20190;-46
2021/01/15 12:52:09;;;;;;;1999.90;999.90;;;-0.90;99.90;;;;;;5026280;28;20920;-46
2021/01/15 12:54:35;;;;;;;1999.90;999.90;;;-1.10;99.90;;;;;;5027234;28;20205;-47
2021/01/15 12:57:00;;;;;;;1999.90;999.90;;;-1.20;99.90;;;;;;5025486;28;20219;-47
2021/01/15 12:59:26;;;;;;;1999.90;999.90;;;-1.20;99.90;;;;;;5028297;28;20282;-47
2021/01/15 13:01:51;;;;;;;1999.90;999.90;;;-1.20;99.90;;;;;;5014919;28;20970;-46
2021/01/15 13:04:17;;;;;;;1999.90;999.90;;;-1.10;99.90;;;;;;5014637;28;20585;-47
2021/01/15 13:06:42;;;;;;;1999.90;999.90;;;-1.10;99.90;;;;;;5016212;28;20289;-47
2021/01/15 13:09:10;;;;;;;1999.90;999.90;;;-1.10;99.90;;;;;;5019067;28;20217;-47
2021/01/15 13:11:36;;;;;;;1999.90;999.90;;;-1.10;99.90;;;;;;5013894;28;20187;-47
2021/01/15 13:14:02;;;;;;;1999.90;999.90;;;-1.20;99.90;;;;;;5020055;28;20491;-46
2021/01/15 13:16:29;;;;;;;1999.90;999.90;;;-1.10;99.90;;;;;;5016162;28;20494;-46
2021/01/15 13:18:56;;;;;;;1999.90;999.90;;;-1.10;99.90;;;;;;5022709;28;20437;-47
2021/01/15 13:21:22;;;;;;;1999.90;999.90;;;-1.10;99.90;;;;;;5017469;28;20441;-47
2021/01/15 13:23:48;;;;;;;1999.90;999.90;;;-1.10;99.90;;;;;;5017151;28;20437;-47
2021/01/15 13:26:14;;;;;;;1999.90;999.90;;;-1.10;99.90;;;;;;5021114;28;20468;-47
2021/01/15 13:28:40;;;;;;;1999.90;999.90;;;-1.20;99.90;;;;;;5022359;28;20503;-46
2021/01/15 13:31:07;;;;;;;1999.90;999.90;;;-1.30;99.90;;;;;;5021767;28;20445;-47
2021/01/15 13:33:33;;;;;;;1999.90;999.90;;;-1.40;99.90;;;;;;5026095;28;20432;-47
2021/01/15 13:36:00;;;;;;;1999.90;999.90;;;-1.60;99.90;;;;;;5024292;28;20445;-47
2021/01/15 13:38:25;;;;;;;1999.90;999.90;;;-1.60;99.90;;;;;;5012608;28;20919;-46
2021/01/15 13:40:51;;;;;;;1999.90;999.90;;;-1.60;99.90;;;;;;5013795;28;20503;-47
2021/01/15 13:43:17;;;;;;;1999.90;999.90;;;-1.60;99.90;;;;;;5018023;28;20282;-47
2021/01/15 13:45:43;;;;;;;1999.90;999.90;;;-1.50;99.90;;;;;;5021634;28;20198;-47
2021/01/15 13:48:09;;;;;;;1999.90;999.90;;;-1.50;99.90;;;;;;5024074;28;20198;-47
2021/01/15 13:53:23;;;;;;;1999.90;999.90;;;-1.40;99.90;;;;;;5014947;28;20448;-46
2021/01/15 13:55:53;;;;;;;1999.90;999.90;;;-1.30;99.90;;;;;;5022512;28;20472;-47
2021/01/15 13:58:20;;;;;;;1999.90;999.90;;;-1.30;99.90;;;;;;5018517;28;20483;-46
2021/01/15 14:00:45;;;;;;;1999.90;999.90;;;-1.10;99.90;;;;;;5023335;28;20429;-47
2021/01/15 14:03:11;;;;;;;1999.90;999.90;;;-1.20;99.90;;;;;;5018922;28;21022;-47
2021/01/15 14:05:38;;;;;;;1999.90;999.90;;;-1.30;99.90;;;;;;5026360;28;20301;-48
2021/01/15 14:08:05;;;;;;;1999.90;999.90;;;-1.40;99.90;;;;;;5022175;28;20197;-47
2021/01/15 14:10:31;;;;;;;1999.90;999.90;;;-1.40;99.90;;;;;;5025848;28;20438;-47
2021/01/15 14:12:57;;;;;;;1999.90;999.90;;;-1.30;99.90;;;;;;5027601;28;20498;-47
2021/01/15 14:15:24;;;;;;;1999.90;999.90;;;-1.30;99.90;;;;;;5023365;28;20470;-47
2021/01/15 14:17:50;;;;;;;1999.90;999.90;;;-1.30;99.90;;;;;;5016492;28;20523;-47
2021/01/15 16:43:05;;;;;;;1999.90;999.90;;;-2.80;99.90;;;;;;5060290;28;20602;-47
2021/01/15 16:45:31;;;;;;;1999.90;999.90;;;-2.80;99.90;;;;;;5045528;28;20296;-47
2021/01/15 16:47:57;;;;;;;1999.90;999.90;;;-2.90;99.90;;;;;;5049179;28;20551;-47
2021/01/15 16:50:23;;;;;;;1999.90;999.90;;;-2.80;99.90;;;;;;5043555;28;20677;-47
2021/01/15 16:52:48;;;;;;;1999.90;999.90;;;-2.90;99.90;;;;;;5045876;28;20185;-46
2021/01/15 16:55:14;;;;;;;1999.90;999.90;;;-2.90;99.90;;;;;;5037880;28;20206;-48
2021/01/15 16:57:40;;;;;;;1999.90;999.90;;;-2.90;99.90;;;;;;5040406;28;20197;-47
2021/01/15 17:00:06;;;;;;;1999.90;999.90;;;-2.90;99.90;;;;;;5026275;28;20220;-47
2021/01/15 17:02:31;;;;;;;1999.90;999.90;;;-2.90;99.90;;;;;;5040912;28;20214;-47
2021/01/15 17:04:57;;;;;;;1999.90;999.90;;;-2.80;99.90;;;;;;5044202;28;20435;-47
2021/01/15 17:07:23;;;;;;;1999.90;999.90;;;-2.80;99.90;;;;;;5042375;28;20182;-47
2021/01/15 17:09:49;;;;;;;1999.90;999.90;;;-2.80;99.90;;;;;;5037963;28;20186;-47
2021/01/15 17:12:21;;;;;;;1999.90;999.90;;;-2.80;99.90;;;;;;5040454;28;20186;-47
2021/01/15 17:14:48;;;;;;;1999.90;999.90;;;-2.80;99.90;;;;;;5041190;28;20688;-47
2021/01/15 17:17:14;;;;;;;1999.90;999.90;;;-2.80;99.90;;;;;;5041472;28;20469;-47
2021/01/15 17:19:40;;;;;;;1999.90;999.90;;;-2.80;99.90;;;;;;5032118;28;20425;-47
2021/01/15 17:22:06;;;;;;;1999.90;999.90;;;-2.90;99.90;;;;;;5033063;28;20541;-47
2021/01/15 17:24:32;;;;;;;1999.90;999.90;;;-2.80;99.90;;;;;;5042441;28;20200;-47
2021/01/15 17:26:58;;;;;;;1999.90;999.90;;;-2.80;99.90;;;;;;5042905;28;20479;-47
2021/01/15 17:29:24;;;;;;;1999.90;999.90;;;-2.90;99.90;;;;;;5042668;28;20567;-47
2021/01/15 17:31:51;;;;;;;1999.90;999.90;;;-2.90;99.90;;;;;;5038952;28;20437;-47
2021/01/15 17:34:21;;;;;;;1999.90;999.90;;;-2.90;99.90;;;;;;5039865;28;20459;-47
2021/01/15 17:36:48;;;;;;;1999.90;999.90;;;-2.90;99.90;;;;;;5042264;28;20865;-47
2021/01/15 17:39:14;;;;;;;1999.90;999.90;;;-2.90;99.90;;;;;;5036454;28;20782;-47
2021/01/15 17:41:42;;;;;;;1999.90;999.90;;;-2.90;99.90;;;;;;5036117;28;20225;-47
2021/01/15 17:44:08;;;;;;;1999.90;999.90;;;-2.90;99.90;;;;;;5034245;28;20836;-46
2021/01/15 17:46:35;;;;;;;1999.90;999.90;;;-2.80;99.90;;;;;;5037478;28;20860;-47
2021/01/15 17:49:03;;;;;;;1999.90;999.90;;;-2.90;99.90;;;;;;5032867;28;20436;-47
2021/01/15 17:51:36;;;;;;;1999.90;999.90;;;-2.90;99.90;;;;;;5030757;28;20445;-47
2021/01/15 17:54:03;;;;;;;1999.90;999.90;;;-2.90;99.90;;;;;;5021431;28;20421;-47
2021/01/15 17:56:29;;;;;;;1999.90;999.90;;;-2.90;99.90;;;;;;5024708;28;20472;-47
2021/01/15 17:58:55;;;;;;;1999.90;999.90;;;-2.90;99.90;;;;;;5023055;28;20448;-47
2021/01/15 18:01:21;;;;;;;1999.90;999.90;;;-3.00;99.90;;;;;;5025683;28;20287;-47
2021/01/15 18:03:48;;;;;;;1999.90;999.90;;;-2.90;99.90;;;;;;5024240;28;20178;-47
2021/01/15 18:06:14;;;;;;;1999.90;999.90;;;-2.90;99.90;;;;;;5023524;28;20461;-47
2021/01/15 18:08:41;;;;;;;1999.90;999.90;;;-2.90;99.90;;;;;;5023874;28;20475;-48
2021/01/15 18:11:10;;;;;;;1999.90;999.90;;;-2.90;99.90;;;;;;5018805;28;21064;-47
2021/01/15 18:13:37;;;;;;;1999.90;999.90;;;-3.00;99.90;;;;;;5027154;28;20452;-47
2021/01/15 18:16:03;;;;;;;1999.90;999.90;;;-3.00;99.90;;;;;;5025753;28;20476;-47
2021/01/15 18:18:29;;;;;;;1999.90;999.90;;;-3.00;99.90;;;;;;5027717;28;20469;-47
2021/01/15 18:20:55;;;;;;;1999.90;999.90;;;-3.00;99.90;;;;;;5017333;28;20476;-47
2021/01/15 18:23:21;;;;;;;1999.90;999.90;;;-2.90;99.90;;;;;;5023772;28;20310;-47
2021/01/15 18:25:47;;;;;;;1999.90;999.90;;;-3.00;99.90;;;;;;5026885;28;20495;-47
2021/01/15 18:28:13;;;;;;;1999.90;999.90;;;-3.00;99.90;;;;;;5020889;28;20456;-48
2021/01/15 18:30:39;;;;;;;1999.90;999.90;;;-3.00;99.90;;;;;;5028600;28;20469;-47
2021/01/15 18:33:05;;;;;;;1999.90;999.90;;;-3.00;99.90;;;;;;5027017;28;20511;-47
2021/01/15 18:35:33;;;;;;;1999.90;999.90;;;-3.00;99.90;;;;;;5026958;28;20483;-47
2021/01/15 18:38:00;;;;;;;1999.90;999.90;;;-2.90;99.90;;;;;;5027308;28;20468;-48
2021/01/15 18:40:27;;;;;;;1999.90;999.90;;;-2.90;99.90;;;;;;5019670;28;20434;-47
2021/01/15 18:42:54;;;;;;;1999.90;999.90;;;-2.90;99.90;;;;;;5021635;28;20579;-47
2021/01/15 18:45:21;;;;;;;1999.90;999.90;;;-2.90;99.90;;;;;;5026306;28;20460;-47
2021/01/15 18:47:49;;;;;;;1999.90;999.90;;;-2.90;99.90;;;;;;5021307;28;20946;-47
2021/01/15 18:50:27;;;;;;;1999.90;999.90;;;-3.00;99.90;;;;;;5024860;28;20440;-47
2021/01/15 18:52:55;;;;;;;1999.90;999.90;;;-2.90;99.90;;;;;;5021133;28;20453;-47
2021/01/15 18:55:21;;;;;;;1999.90;999.90;;;-2.90;99.90;;;;;;5034396;28;20576;-47
2021/01/15 18:57:51;;;;;;;1999.90;999.90;;;-3.00;99.90;;;;;;5036624;28;20448;-47
2021/01/15 19:00:19;;;;;;;1999.90;999.90;;;-3.10;99.90;;;;;;5035581;28;20528;-48
2021/01/15 19:02:46;;;;;;;1999.90;999.90;;;-3.10;99.90;;;;;;5029763;28;20480;-47
2021/01/15 19:05:12;;;;;;;1999.90;999.90;;;-3.10;99.90;;;;;;5019049;28;20971;-47
2021/01/15 19:07:38;;;;;;;1999.90;999.90;;;-3.10;99.90;;;;;;5027997;28;20436;-47
2021/01/15 19:10:05;;;;;;;1999.90;999.90;;;-3.10;99.90;;;;;;5020446;28;20551;-47
2021/01/15 19:12:31;;;;;;;1999.90;999.90;;;-3.20;99.90;;;;;;5023869;28;20190;-47
2021/01/15 19:15:00;;;;;;;1999.90;999.90;;;-3.10;99.90;;;;;;5020010;28;20528;-47
2021/01/15 19:17:25;;;;;;;1999.90;999.90;;;-3.10;99.90;;;;;;5018380;28;20417;-47
2021/01/15 19:19:51;;;;;;;1999.90;999.90;;;-3.00;99.90;;;;;;5019998;28;20444;-47
2021/01/15 19:22:17;;;;;;;1999.90;999.90;;;-3.10;99.90;;;;;;5019512;28;20206;-47
2021/01/15 19:24:43;;;;;;;1999.90;999.90;;;-3.10;99.90;;;;;;5021618;28;20445;-47
2021/01/15 19:27:09;;;;;;;1999.90;999.90;;;-3.20;99.90;;;;;;5025848;28;20465;-45
2021/01/15 19:29:35;;;;;;;1999.90;999.90;;;-3.20;99.90;;;;;;5023404;28;20438;-48
2021/01/15 19:32:01;;;;;;;1999.90;999.90;;;-3.10;99.90;;;;;;5023425;28;20193;-48
2021/01/15 19:34:26;;;;;;;1999.90;999.90;;;-3.00;99.90;;;;;;5021596;28;20187;-46
2021/01/15 19:36:52;;;;;;;1999.90;999.90;;;-3.00;99.90;;;;;;5017146;28;20207;-46
2021/01/15 19:39:17;;;;;;;1999.90;999.90;;;-3.10;99.90;;;;;;5020395;28;20183;-46
2021/01/15 19:41:43;;;;;;;1999.90;999.90;;;-3.10;99.90;;;;;;5020682;28;20211;-46
2021/01/15 19:44:09;;;;;;;1999.90;999.90;;;-3.20;99.90;;;;;;5022739;28;20186;-46
2021/01/15 19:46:38;;;;;;;1999.90;999.90;;;-3.20;99.90;;;;;;5021745;28;20210;-46
2021/01/15 19:49:04;;;;;;;1999.90;999.90;;;-3.20;99.90;;;;;;5022856;28;20951;-46
2021/01/15 19:51:30;;;;;;;1999.90;999.90;;;-3.20;99.90;;;;;;5019649;28;20448;-47
2021/01/15 19:53:56;;;;;;;1999.90;999.90;;;-3.20;99.90;;;;;;5021276;28;20285;-47
2021/01/15 19:56:21;;;;;;;1999.90;999.90;;;-3.20;99.90;;;;;;5017865;28;20199;-46
2021/01/15 19:58:47;;;;;;;1999.90;999.90;;;-3.20;99.90;;;;;;5020922;28;20473;-46
2021/01/15 20:01:13;;;;;;;1999.90;999.90;;;-3.20;99.90;;;;;;5027728;28;20725;-46
2021/01/15 20:03:39;;;;;;;1999.90;999.90;;;-3.20;99.90;;;;;;5023334;28;20185;-46
2021/01/15 20:06:05;;;;;;;1999.90;999.90;;;-3.20;99.90;;;;;;5024735;28;20437;-47
2021/01/15 20:08:31;;;;;;;1999.90;999.90;;;-3.10;99.90;;;;;;5016580;28;20732;-46
2021/01/15 20:10:57;;;;;;;1999.90;999.90;;;-3.20;99.90;;;;;;5007683;28;20441;-46
2021/01/15 20:13:23;;;;;;;1999.90;999.90;;;-3.20;99.90;;;;;;5021498;28;20189;-46
2021/01/15 20:15:50;;;;;;;1999.90;999.90;;;-3.30;99.90;;;;;;5025377;28;20460;-46
2021/01/15 20:18:18;;;;;;;1999.90;999.90;;;-3.30;99.90;;;;;;5022180;28;20432;-46
2021/01/15 20:20:46;;;;;;;1999.90;999.90;;;-3.20;99.90;;;;;;5011709;28;20426;-47
2021/01/15 20:23:11;;;;;;;1999.90;999.90;;;-3.30;99.90;;;;;;5021511;28;20463;-46
2021/01/15 20:25:38;;;;;;;1999.90;999.90;;;-3.30;99.90;;;;;;5026043;28;21312;-46